sensor_id;sensor_type;location;lat;lon;timestamp;pressure;altitude;pressure_sealevel;temperature;humidity
58295;BME280;45705;55.592;37.460;2023-11-19T00:01:41;100017.53;;;-7.65;95.95
58295;BME280;45705;55.592;37.460;2023-11-19T00:04:07;100017.88;;;-7.68;96.51
58295;BME280;45705;55.592;37.460;2023-11-19T00:06:33;100006.97;;;-7.65;96.55
58295;BME280;45705;55.592;37.460;2023-11-19T00:08:59;100013.22;;;-7.66;96.71
58295;BME280;45705;55.592;37.460;2023-11-19T00:11:25;100013.25;;;-7.74;95.33
58295;BME280;45705;55.592;37.460;2023-11-19T00:13:51;100006.63;;;-7.62;94.94
58295;BME280;45705;55.592;37.460;2023-11-19T00:16:17;100001.03;;;-7.67;93.89
58295;BME280;45705;55.592;37.460;2023-11-19T00:18:43;99993.25;;;-7.60;93.08
58295;BME280;45705;55.592;37.460;2023-11-19T00:21:08;99997.78;;;-7.77;93.71
58295;BME280;45705;55.592;37.460;2023-11-19T00:23:35;99998.75;;;-7.78;93.28
58295;BME280;45705;55.592;37.460;2023-11-19T00:26:01;99996.44;;;-7.81;93.53
58295;BME280;45705;55.592;37.460;2023-11-19T00:28:27;99993.44;;;-7.70;92.57
58295;BME280;45705;55.592;37.460;2023-11-19T00:30:55;99992.13;;;-7.58;91.63
58295;BME280;45705;55.592;37.460;2023-11-19T00:33:21;99988.81;;;-7.60;92.04
58295;BME280;45705;55.592;37.460;2023-11-19T00:35:47;99999.44;;;-7.37;91.12
58295;BME280;45705;55.592;37.460;2023-11-19T00:38:12;99988.03;;;-7.29;90.84
58295;BME280;45705;55.592;37.460;2023-11-19T00:40:38;99988.09;;;-7.45;90.79
58295;BME280;45705;55.592;37.460;2023-11-19T00:43:04;99980.19;;;-7.45;91.57
58295;BME280;45705;55.592;37.460;2023-11-19T00:45:30;99971.63;;;-7.56;91.10
58295;BME280;45705;55.592;37.460;2023-11-19T00:47:55;99957.22;;;-8.01;93.44
58295;BME280;45705;55.592;37.460;2023-11-19T00:50:21;99974.19;;;-7.95;94.54
58295;BME280;45705;55.592;37.460;2023-11-19T00:52:48;99972.19;;;-7.77;93.86
58295;BME280;45705;55.592;37.460;2023-11-19T00:55:15;99963.63;;;-7.79;95.06
58295;BME280;45705;55.592;37.460;2023-11-19T00:57:40;99972.34;;;-7.78;95.42
58295;BME280;45705;55.592;37.460;2023-11-19T01:00:09;99970.69;;;-7.71;95.71
58295;BME280;45705;55.592;37.460;2023-11-19T01:02:45;99969.66;;;-7.62;95.64
58295;BME280;45705;55.592;37.460;2023-11-19T01:05:11;99974.69;;;-7.92;96.25
58295;BME280;45705;55.592;37.460;2023-11-19T01:07:40;99968.78;;;-8.18;97.18
58295;BME280;45705;55.592;37.460;2023-11-19T01:10:06;99956.72;;;-7.96;98.56
58295;BME280;45705;55.592;37.460;2023-11-19T01:12:34;99958.25;;;-8.26;97.86
58295;BME280;45705;55.592;37.460;2023-11-19T01:14:59;99956.56;;;-8.11;98.89
58295;BME280;45705;55.592;37.460;2023-11-19T01:17:29;99954.94;;;-8.12;99.39
58295;BME280;45705;55.592;37.460;2023-11-19T01:19:57;99942.56;;;-8.28;98.87
58295;BME280;45705;55.592;37.460;2023-11-19T01:22:23;99944.25;;;-8.27;98.23
58295;BME280;45705;55.592;37.460;2023-11-19T01:24:48;99938.75;;;-8.01;97.62
58295;BME280;45705;55.592;37.460;2023-11-19T01:27:15;99944.03;;;-8.01;97.55
58295;BME280;45705;55.592;37.460;2023-11-19T01:29:41;99925.28;;;-8.39;96.59
58295;BME280;45705;55.592;37.460;2023-11-19T01:32:08;99939.00;;;-8.43;99.33
58295;BME280;45705;55.592;37.460;2023-11-19T01:34:34;99905.22;;;-8.48;98.51
58295;BME280;45705;55.592;37.460;2023-11-19T01:37:01;99953.56;;;-7.92;98.46
58295;BME280;45705;55.592;37.460;2023-11-19T01:39:27;99942.31;;;-7.69;97.18
58295;BME280;45705;55.592;37.460;2023-11-19T01:41:53;99942.97;;;-7.67;94.35
58295;BME280;45705;55.592;37.460;2023-11-19T01:44:20;99939.47;;;-7.59;93.68
58295;BME280;45705;55.592;37.460;2023-11-19T01:46:46;99932.97;;;-7.48;94.69
58295;BME280;45705;55.592;37.460;2023-11-19T01:49:15;99935.94;;;-7.43;93.90
58295;BME280;45705;55.592;37.460;2023-11-19T01:51:41;99934.09;;;-7.35;92.70
58295;BME280;45705;55.592;37.460;2023-11-19T01:54:08;99919.22;;;-7.36;91.48
58295;BME280;45705;55.592;37.460;2023-11-19T01:56:35;99925.47;;;-7.37;91.13
58295;BME280;45705;55.592;37.460;2023-11-19T01:59:03;99920.81;;;-7.58;91.86
58295;BME280;45705;55.592;37.460;2023-11-19T02:01:29;99923.91;;;-7.46;90.25
58295;BME280;45705;55.592;37.460;2023-11-19T02:03:55;99925.03;;;-7.40;90.03
58295;BME280;45705;55.592;37.460;2023-11-19T02:06:21;99930.97;;;-7.38;89.42
58295;BME280;45705;55.592;37.460;2023-11-19T02:08:47;99938.22;;;-7.40;88.78
58295;BME280;45705;55.592;37.460;2023-11-19T02:11:13;99933.25;;;-7.35;89.13
58295;BME280;45705;55.592;37.460;2023-11-19T02:13:39;99933.94;;;-7.41;89.26
58295;BME280;45705;55.592;37.460;2023-11-19T02:16:07;99928.53;;;-7.48;89.18
58295;BME280;45705;55.592;37.460;2023-11-19T02:18:35;99932.31;;;-7.42;89.24
58295;BME280;45705;55.592;37.460;2023-11-19T02:21:01;99925.69;;;-7.46;88.66
58295;BME280;45705;55.592;37.460;2023-11-19T02:23:27;99929.75;;;-7.67;89.40
58295;BME280;45705;55.592;37.460;2023-11-19T02:26:23;99936.47;;;-7.56;89.34
58295;BME280;45705;55.592;37.460;2023-11-19T02:28:50;99937.91;;;-7.45;88.66
58295;BME280;45705;55.592;37.460;2023-11-19T02:31:16;99929.69;;;-7.50;87.62
58295;BME280;45705;55.592;37.460;2023-11-19T02:33:42;99932.50;;;-7.52;87.68
58295;BME280;45705;55.592;37.460;2023-11-19T02:36:08;99919.47;;;-7.62;87.49
58295;BME280;45705;55.592;37.460;2023-11-19T02:38:34;99922.53;;;-7.73;88.87
58295;BME280;45705;55.592;37.460;2023-11-19T02:41:04;99927.47;;;-7.78;88.57
58295;BME280;45705;55.592;37.460;2023-11-19T02:43:33;99924.19;;;-7.80;88.92
58295;BME280;45705;55.592;37.460;2023-11-19T02:46:03;99917.19;;;-7.65;88.65
58295;BME280;45705;55.592;37.460;2023-11-19T02:48:33;99924.13;;;-7.64;86.86
58295;BME280;45705;55.592;37.460;2023-11-19T02:51:02;99923.47;;;-7.58;86.80
58295;BME280;45705;55.592;37.460;2023-11-19T02:53:29;99919.09;;;-7.50;88.41
58295;BME280;45705;55.592;37.460;2023-11-19T02:55:55;99918.63;;;-7.46;88.42
58295;BME280;45705;55.592;37.460;2023-11-19T02:58:27;99928.84;;;-7.51;87.99
58295;BME280;45705;55.592;37.460;2023-11-19T03:00:55;99926.16;;;-7.82;87.60
58295;BME280;45705;55.592;37.460;2023-11-19T03:03:26;99921.19;;;-7.69;87.35
58295;BME280;45705;55.592;37.460;2023-11-19T03:06:07;99918.38;;;-7.67;87.36
58295;BME280;45705;55.592;37.460;2023-11-19T03:08:35;99920.53;;;-7.79;88.54
58295;BME280;45705;55.592;37.460;2023-11-19T03:11:02;99918.75;;;-7.79;88.76
58295;BME280;45705;55.592;37.460;2023-11-19T03:13:27;99912.31;;;-7.84;88.58
58295;BME280;45705;55.592;37.460;2023-11-19T03:15:53;99911.28;;;-7.67;90.41
58295;BME280;45705;55.592;37.460;2023-11-19T03:18:20;99908.63;;;-7.67;91.56
58295;BME280;45705;55.592;37.460;2023-11-19T03:20:46;99904.75;;;-7.96;92.63
58295;BME280;45705;55.592;37.460;2023-11-19T03:23:13;99903.78;;;-8.03;94.52
58295;BME280;45705;55.592;37.460;2023-11-19T03:25:39;99906.69;;;-7.81;94.76
58295;BME280;45705;55.592;37.460;2023-11-19T03:28:05;99908.59;;;-8.15;94.88
58295;BME280;45705;55.592;37.460;2023-11-19T03:30:32;99904.13;;;-8.06;96.43
58295;BME280;45705;55.592;37.460;2023-11-19T03:32:58;99898.25;;;-8.33;97.51
58295;BME280;45705;55.592;37.460;2023-11-19T03:35:25;99909.13;;;-8.19;98.74
58295;BME280;45705;55.592;37.460;2023-11-19T03:37:51;99885.72;;;-8.31;99.70
58295;BME280;45705;55.592;37.460;2023-11-19T03:40:17;99909.00;;;-8.42;100.00
58295;BME280;45705;55.592;37.460;2023-11-19T03:42:46;99898.88;;;-8.22;99.39
58295;BME280;45705;55.592;37.460;2023-11-19T03:45:12;99901.22;;;-8.36;99.85
58295;BME280;45705;55.592;37.460;2023-11-19T03:47:38;99901.06;;;-8.34;99.03
58295;BME280;45705;55.592;37.460;2023-11-19T03:50:05;99895.94;;;-8.27;99.34
58295;BME280;45705;55.592;37.460;2023-11-19T03:52:31;99890.13;;;-8.15;98.04
58295;BME280;45705;55.592;37.460;2023-11-19T03:54:57;99885.63;;;-7.98;95.88
58295;BME280;45705;55.592;37.460;2023-11-19T03:57:23;99881.06;;;-8.12;94.35
58295;BME280;45705;55.592;37.460;2023-11-19T03:59:49;99870.19;;;-8.17;95.42
58295;BME280;45705;55.592;37.460;2023-11-19T04:02:16;99869.16;;;-8.00;95.20
58295;BME280;45705;55.592;37.460;2023-11-19T04:04:42;99868.22;;;-8.23;95.90
58295;BME280;45705;55.592;37.460;2023-11-19T04:07:08;99872.00;;;-8.09;93.86
58295;BME280;45705;55.592;37.460;2023-11-19T04:09:33;99866.53;;;-8.16;93.51
58295;BME280;45705;55.592;37.460;2023-11-19T04:12:00;99865.22;;;-8.04;91.80
58295;BME280;45705;55.592;37.460;2023-11-19T04:14:26;99864.25;;;-8.11;91.89
58295;BME280;45705;55.592;37.460;2023-11-19T04:16:53;99850.75;;;-8.24;89.87
58295;BME280;45705;55.592;37.460;2023-11-19T04:19:19;99858.53;;;-8.31;88.17
58295;BME280;45705;55.592;37.460;2023-11-19T04:21:45;99851.94;;;-8.35;88.88
58295;BME280;45705;55.592;37.460;2023-11-19T04:24:12;99846.25;;;-8.63;91.88
58295;BME280;45705;55.592;37.460;2023-11-19T04:26:41;99842.63;;;-8.54;93.70
58295;BME280;45705;55.592;37.460;2023-11-19T04:29:14;99847.16;;;-8.32;92.24
58295;BME280;45705;55.592;37.460;2023-11-19T04:31:41;99850.50;;;-8.46;93.29
58295;BME280;45705;55.592;37.460;2023-11-19T04:34:07;99852.50;;;-8.73;95.13
58295;BME280;45705;55.592;37.460;2023-11-19T04:36:34;99847.06;;;-8.55;94.77
58295;BME280;45705;55.592;37.460;2023-11-19T04:39:01;99859.84;;;-8.27;92.65
58295;BME280;45705;55.592;37.460;2023-11-19T04:41:27;99855.88;;;-8.23;90.11
58295;BME280;45705;55.592;37.460;2023-11-19T04:43:54;99862.78;;;-8.22;89.26
58295;BME280;45705;55.592;37.460;2023-11-19T04:46:20;99877.41;;;-8.03;91.65
58295;BME280;45705;55.592;37.460;2023-11-19T04:48:46;99847.03;;;-7.90;91.62
58295;BME280;45705;55.592;37.460;2023-11-19T04:51:12;99867.09;;;-7.73;91.75
58295;BME280;45705;55.592;37.460;2023-11-19T04:53:37;99865.63;;;-7.84;91.29
58295;BME280;45705;55.592;37.460;2023-11-19T04:56:11;99859.94;;;-8.04;92.79
58295;BME280;45705;55.592;37.460;2023-11-19T04:58:37;99860.50;;;-8.33;94.85
58295;BME280;45705;55.592;37.460;2023-11-19T05:01:03;99857.03;;;-8.34;96.44
58295;BME280;45705;55.592;37.460;2023-11-19T05:03:30;99865.63;;;-8.32;96.67
58295;BME280;45705;55.592;37.460;2023-11-19T05:05:58;99877.09;;;-8.16;96.83
58295;BME280;45705;55.592;37.460;2023-11-19T05:08:24;99871.34;;;-8.28;97.06
58295;BME280;45705;55.592;37.460;2023-11-19T05:10:50;99875.38;;;-7.84;98.20
58295;BME280;45705;55.592;37.460;2023-11-19T05:13:15;99869.19;;;-7.68;96.50
58295;BME280;45705;55.592;37.460;2023-11-19T05:15:42;99867.34;;;-7.60;93.82
58295;BME280;45705;55.592;37.460;2023-11-19T05:18:08;99870.41;;;-7.87;93.23
58295;BME280;45705;55.592;37.460;2023-11-19T05:20:34;99867.16;;;-7.98;95.03
58295;BME280;45705;55.592;37.460;2023-11-19T05:23:00;99879.88;;;-8.01;96.56
58295;BME280;45705;55.592;37.460;2023-11-19T05:25:27;99880.41;;;-8.14;96.93
58295;BME280;45705;55.592;37.460;2023-11-19T05:27:53;99879.59;;;-7.36;95.66
58295;BME280;45705;55.592;37.460;2023-11-19T05:30:19;99884.09;;;-7.84;95.82
58295;BME280;45705;55.592;37.460;2023-11-19T05:32:45;99883.56;;;-7.71;96.08
58295;BME280;45705;55.592;37.460;2023-11-19T05:35:12;99878.09;;;-8.09;96.50
58295;BME280;45705;55.592;37.460;2023-11-19T05:37:37;99882.03;;;-7.97;96.53
58295;BME280;45705;55.592;37.460;2023-11-19T05:40:04;99881.38;;;-8.07;98.27
58295;BME280;45705;55.592;37.460;2023-11-19T05:42:34;99878.63;;;-7.43;96.13
58295;BME280;45705;55.592;37.460;2023-11-19T05:44:59;99873.88;;;-7.79;96.13
58295;BME280;45705;55.592;37.460;2023-11-19T05:47:25;99882.31;;;-7.92;97.75
58295;BME280;45705;55.592;37.460;2023-11-19T05:49:51;99880.63;;;-7.45;97.18
58295;BME280;45705;55.592;37.460;2023-11-19T05:52:17;99875.38;;;-7.84;97.82
58295;BME280;45705;55.592;37.460;2023-11-19T05:54:43;99876.16;;;-7.44;99.06
58295;BME280;45705;55.592;37.460;2023-11-19T05:57:08;99867.34;;;-7.28;97.56
58295;BME280;45705;55.592;37.460;2023-11-19T05:59:35;99871.16;;;-7.08;97.04
58295;BME280;45705;55.592;37.460;2023-11-19T06:02:02;99869.41;;;-6.93;94.37
58295;BME280;45705;55.592;37.460;2023-11-19T06:04:28;99851.78;;;-7.00;93.89
58295;BME280;45705;55.592;37.460;2023-11-19T06:06:54;99864.00;;;-6.99;94.52
58295;BME280;45705;55.592;37.460;2023-11-19T06:09:23;99862.25;;;-6.84;93.38
58295;BME280;45705;55.592;37.460;2023-11-19T06:11:50;99860.69;;;-6.55;91.82
58295;BME280;45705;55.592;37.460;2023-11-19T06:14:16;99860.09;;;-6.65;91.68
58295;BME280;45705;55.592;37.460;2023-11-19T06:16:42;99859.03;;;-6.56;91.89
58295;BME280;45705;55.592;37.460;2023-11-19T06:19:08;99863.59;;;-6.50;91.86
58295;BME280;45705;55.592;37.460;2023-11-19T06:21:34;99865.63;;;-6.98;92.51
58295;BME280;45705;55.592;37.460;2023-11-19T06:24:01;99864.88;;;-6.46;93.07
58295;BME280;45705;55.592;37.460;2023-11-19T06:26:27;99860.59;;;-6.32;92.38
58295;BME280;45705;55.592;37.460;2023-11-19T06:28:52;99852.22;;;-6.74;92.40
58295;BME280;45705;55.592;37.460;2023-11-19T06:31:18;99851.44;;;-6.59;91.74
58295;BME280;45705;55.592;37.460;2023-11-19T06:33:44;99850.56;;;-6.75;93.35
58295;BME280;45705;55.592;37.460;2023-11-19T06:36:14;99856.56;;;-6.81;92.69
58295;BME280;45705;55.592;37.460;2023-11-19T06:38:42;99848.06;;;-6.91;93.68
58295;BME280;45705;55.592;37.460;2023-11-19T06:41:08;99855.44;;;-6.63;94.30
58295;BME280;45705;55.592;37.460;2023-11-19T06:43:37;99858.00;;;-6.93;94.04
58295;BME280;45705;55.592;37.460;2023-11-19T06:46:03;99861.38;;;-6.99;95.69
58295;BME280;45705;55.592;37.460;2023-11-19T06:48:32;99842.47;;;-6.73;96.50
58295;BME280;45705;55.592;37.460;2023-11-19T06:50:59;99845.22;;;-6.66;94.92
58295;BME280;45705;55.592;37.460;2023-11-19T06:53:25;99843.16;;;-6.56;94.66
58295;BME280;45705;55.592;37.460;2023-11-19T06:55:50;99849.00;;;-6.46;94.05
58295;BME280;45705;55.592;37.460;2023-11-19T06:58:16;99854.41;;;-6.24;94.17
58295;BME280;45705;55.592;37.460;2023-11-19T07:00:43;99856.22;;;-6.40;92.54
58295;BME280;45705;55.592;37.460;2023-11-19T07:03:10;99849.38;;;-6.49;93.27
58295;BME280;45705;55.592;37.460;2023-11-19T07:05:36;99850.94;;;-6.25;92.87
58295;BME280;45705;55.592;37.460;2023-11-19T07:08:06;99846.78;;;-6.57;93.09
58295;BME280;45705;55.592;37.460;2023-11-19T07:10:33;99857.22;;;-6.79;94.04
58295;BME280;45705;55.592;37.460;2023-11-19T07:12:59;99856.28;;;-6.48;94.39
58295;BME280;45705;55.592;37.460;2023-11-19T07:15:25;99847.91;;;-6.37;92.49
58295;BME280;45705;55.592;37.460;2023-11-19T07:17:50;99861.59;;;-5.88;89.83
58295;BME280;45705;55.592;37.460;2023-11-19T07:20:16;99854.63;;;-5.89;89.25
58295;BME280;45705;55.592;37.460;2023-11-19T07:22:45;99847.09;;;-6.22;91.02
58295;BME280;45705;55.592;37.460;2023-11-19T07:25:14;99851.19;;;-6.35;92.00
58295;BME280;45705;55.592;37.460;2023-11-19T07:27:40;99849.59;;;-6.06;91.66
58295;BME280;45705;55.592;37.460;2023-11-19T07:30:06;99853.72;;;-5.67;91.44
58295;BME280;45705;55.592;37.460;2023-11-19T07:32:35;99838.47;;;-5.80;89.52
58295;BME280;45705;55.592;37.460;2023-11-19T07:35:01;99842.53;;;-5.47;89.33
58295;BME280;45705;55.592;37.460;2023-11-19T07:37:28;99844.16;;;-5.68;87.30
58295;BME280;45705;55.592;37.460;2023-11-19T07:39:54;99836.34;;;-6.21;90.15
58295;BME280;45705;55.592;37.460;2023-11-19T07:42:26;99843.03;;;-5.95;90.63
58295;BME280;45705;55.592;37.460;2023-11-19T07:44:52;99834.31;;;-5.53;88.89
58295;BME280;45705;55.592;37.460;2023-11-19T07:47:20;99836.00;;;-5.30;85.43
58295;BME280;45705;55.592;37.460;2023-11-19T07:49:50;99852.66;;;-5.36;85.51
58295;BME280;45705;55.592;37.460;2023-11-19T07:52:16;99853.50;;;-6.02;89.99
58295;BME280;45705;55.592;37.460;2023-11-19T07:54:41;99853.38;;;-5.94;90.37
58295;BME280;45705;55.592;37.460;2023-11-19T07:57:07;99848.63;;;-5.83;90.87
58295;BME280;45705;55.592;37.460;2023-11-19T07:59:33;99831.44;;;-4.93;87.73
58295;BME280;45705;55.592;37.460;2023-11-19T08:01:58;99835.75;;;-4.92;86.08
58295;BME280;45705;55.592;37.460;2023-11-19T08:04:24;99841.41;;;-5.38;87.43
58295;BME280;45705;55.592;37.460;2023-11-19T08:06:50;99832.69;;;-5.54;87.98
58295;BME280;45705;55.592;37.460;2023-11-19T08:09:17;99832.59;;;-5.24;87.19
58295;BME280;45705;55.592;37.460;2023-11-19T08:11:43;99822.22;;;-4.47;83.66
58295;BME280;45705;55.592;37.460;2023-11-19T08:14:09;99826.22;;;-4.58;83.72
58295;BME280;45705;55.592;37.460;2023-11-19T08:16:35;99825.91;;;-4.77;82.28
58295;BME280;45705;55.592;37.460;2023-11-19T08:19:03;99821.34;;;-5.47;83.28
58295;BME280;45705;55.592;37.460;2023-11-19T08:21:29;99818.41;;;-4.66;81.08
58295;BME280;45705;55.592;37.460;2023-11-19T08:23:54;99818.19;;;-5.15;79.43
58295;BME280;45705;55.592;37.460;2023-11-19T08:26:21;99818.00;;;-5.71;82.25
58295;BME280;45705;55.592;37.460;2023-11-19T08:28:47;99809.09;;;-5.85;83.33
58295;BME280;45705;55.592;37.460;2023-11-19T08:31:13;99812.25;;;-5.60;83.68
58295;BME280;45705;55.592;37.460;2023-11-19T08:33:39;99805.03;;;-5.66;83.35
58295;BME280;45705;55.592;37.460;2023-11-19T08:36:05;99817.84;;;-5.33;81.21
58295;BME280;45705;55.592;37.460;2023-11-19T08:38:31;99811.78;;;-5.27;80.98
58295;BME280;45705;55.592;37.460;2023-11-19T08:40:57;99821.06;;;-5.89;82.32
58295;BME280;45705;55.592;37.460;2023-11-19T08:43:26;99825.03;;;-6.00;82.72
58295;BME280;45705;55.592;37.460;2023-11-19T08:45:52;99817.91;;;-5.63;82.65
58295;BME280;45705;55.592;37.460;2023-11-19T08:48:17;99817.53;;;-5.02;80.11
58295;BME280;45705;55.592;37.460;2023-11-19T08:50:43;99812.34;;;-4.88;78.62
58295;BME280;45705;55.592;37.460;2023-11-19T08:53:09;99816.28;;;-4.78;77.61
58295;BME280;45705;55.592;37.460;2023-11-19T08:55:35;99817.19;;;-4.92;77.32
58295;BME280;45705;55.592;37.460;2023-11-19T08:58:00;99823.50;;;-5.72;79.20
58295;BME280;45705;55.592;37.460;2023-11-19T09:00:27;99814.53;;;-5.35;79.77
58295;BME280;45705;55.592;37.460;2023-11-19T09:02:53;99802.16;;;-5.06;76.33
58295;BME280;45705;55.592;37.460;2023-11-19T09:05:19;99810.97;;;-4.78;76.64
58295;BME280;45705;55.592;37.460;2023-11-19T09:07:45;99799.56;;;-4.78;75.58
58295;BME280;45705;55.592;37.460;2023-11-19T09:10:10;99802.78;;;-5.26;78.28
58295;BME280;45705;55.592;37.460;2023-11-19T09:12:37;99795.91;;;-5.63;79.44
58295;BME280;45705;55.592;37.460;2023-11-19T09:15:03;99793.44;;;-5.22;78.93
58295;BME280;45705;55.592;37.460;2023-11-19T09:17:30;99796.59;;;-4.90;75.78
58295;BME280;45705;55.592;37.460;2023-11-19T09:19:56;99789.53;;;-5.04;74.66
58295;BME280;45705;55.592;37.460;2023-11-19T09:22:22;99784.47;;;-4.99;74.41
58295;BME280;45705;55.592;37.460;2023-11-19T09:24:48;99781.06;;;-4.93;74.16
58295;BME280;45705;55.592;37.460;2023-11-19T09:27:14;99786.03;;;-5.33;74.35
58295;BME280;45705;55.592;37.460;2023-11-19T09:29:39;99780.09;;;-5.13;74.59
58295;BME280;45705;55.592;37.460;2023-11-19T09:32:06;99778.03;;;-5.55;73.83
58295;BME280;45705;55.592;37.460;2023-11-19T09:34:33;99770.81;;;-5.46;73.51
58295;BME280;45705;55.592;37.460;2023-11-19T09:36:58;99773.19;;;-5.87;75.16
58295;BME280;45705;55.592;37.460;2023-11-19T09:39:24;99773.19;;;-5.87;77.27
58295;BME280;45705;55.592;37.460;2023-11-19T09:41:51;99767.97;;;-5.23;74.80
58295;BME280;45705;55.592;37.460;2023-11-19T09:44:17;99759.94;;;-4.80;71.63
58295;BME280;45705;55.592;37.460;2023-11-19T09:46:44;99760.31;;;-4.83;69.89
58295;BME280;45705;55.592;37.460;2023-11-19T09:49:12;99753.31;;;-5.19;69.11
58295;BME280;45705;55.592;37.460;2023-11-19T09:51:38;99746.94;;;-4.75;71.50
58295;BME280;45705;55.592;37.460;2023-11-19T09:54:04;99745.75;;;-5.22;69.89
58295;BME280;45705;55.592;37.460;2023-11-19T09:56:30;99739.94;;;-5.75;72.18
58295;BME280;45705;55.592;37.460;2023-11-19T09:58:56;99739.94;;;-5.32;71.50
58295;BME280;45705;55.592;37.460;2023-11-19T10:01:22;99738.69;;;-5.36;71.45
58295;BME280;45705;55.592;37.460;2023-11-19T10:03:49;99726.72;;;-5.54;68.74
58295;BME280;45705;55.592;37.460;2023-11-19T10:06:15;99726.63;;;-5.17;70.88
58295;BME280;45705;55.592;37.460;2023-11-19T10:08:42;99713.75;;;-4.92;67.30
58295;BME280;45705;55.592;37.460;2023-11-19T10:11:08;99726.41;;;-4.94;65.48
58295;BME280;45705;55.592;37.460;2023-11-19T10:13:37;99725.81;;;-4.89;64.06
58295;BME280;45705;55.592;37.460;2023-11-19T10:16:12;99731.69;;;-5.44;64.15
58295;BME280;45705;55.592;37.460;2023-11-19T10:18:49;99732.44;;;-5.00;63.44
58295;BME280;45705;55.592;37.460;2023-11-19T10:21:18;99730.16;;;-4.82;63.88
58295;BME280;45705;55.592;37.460;2023-11-19T10:23:55;99718.25;;;-5.42;63.85
58295;BME280;45705;55.592;37.460;2023-11-19T10:26:27;99722.94;;;-5.66;65.17
58295;BME280;45705;55.592;37.460;2023-11-19T10:28:53;99717.84;;;-5.39;64.99
58295;BME280;45705;55.592;37.460;2023-11-19T10:31:20;99719.44;;;-5.45;66.09
58295;BME280;45705;55.592;37.460;2023-11-19T10:33:52;99722.63;;;-5.06;66.02
58295;BME280;45705;55.592;37.460;2023-11-19T10:36:18;99724.31;;;-5.48;65.71
58295;BME280;45705;55.592;37.460;2023-11-19T10:38:55;99712.63;;;-5.04;64.18
58295;BME280;45705;55.592;37.460;2023-11-19T10:41:30;99720.38;;;-5.74;65.99
58295;BME280;45705;55.592;37.460;2023-11-19T10:43:59;99721.88;;;-5.86;67.73
58295;BME280;45705;55.592;37.460;2023-11-19T10:46:38;99720.78;;;-5.56;66.50
58295;BME280;45705;55.592;37.460;2023-11-19T10:49:06;99722.91;;;-5.23;65.04
58295;BME280;45705;55.592;37.460;2023-11-19T10:51:32;99716.72;;;-5.30;64.30
58295;BME280;45705;55.592;37.460;2023-11-19T10:54:05;99715.16;;;-5.67;65.15
58295;BME280;45705;55.592;37.460;2023-11-19T10:56:32;99715.84;;;-5.80;66.08
58295;BME280;45705;55.592;37.460;2023-11-19T10:59:01;99729.81;;;-6.08;67.27
58295;BME280;45705;55.592;37.460;2023-11-19T11:01:45;99723.28;;;-5.69;67.61
58295;BME280;45705;55.592;37.460;2023-11-19T11:04:14;99702.72;;;-5.88;66.69
58295;BME280;45705;55.592;37.460;2023-11-19T11:06:41;99721.13;;;-5.37;65.77
58295;BME280;45705;55.592;37.460;2023-11-19T11:09:08;99720.00;;;-5.28;65.03
58295;BME280;45705;55.592;37.460;2023-11-19T11:11:39;99715.84;;;-5.80;66.68
58295;BME280;45705;55.592;37.460;2023-11-19T11:14:07;99722.31;;;-5.46;66.51
58295;BME280;45705;55.592;37.460;2023-11-19T11:16:34;99718.59;;;-5.88;67.07
58295;BME280;45705;55.592;37.460;2023-11-19T11:19:03;99697.81;;;-5.70;66.56
58295;BME280;45705;55.592;37.460;2023-11-19T11:21:30;99710.66;;;-5.24;65.24
58295;BME280;45705;55.592;37.460;2023-11-19T11:26:42;99704.69;;;-5.04;62.58
58295;BME280;45705;55.592;37.460;2023-11-19T11:29:39;99715.09;;;-5.74;64.31
58295;BME280;45705;55.592;37.460;2023-11-19T11:37:27;99711.56;;;-5.60;63.75
58295;BME280;45705;55.592;37.460;2023-11-19T11:39:57;99708.16;;;-5.75;64.81
58295;BME280;45705;55.592;37.460;2023-11-19T11:45:07;99700.72;;;-5.65;65.56
58295;BME280;45705;55.592;37.460;2023-11-19T11:50:13;99705.75;;;-5.70;65.96
58295;BME280;45705;55.592;37.460;2023-11-19T11:55:35;99705.50;;;-5.54;66.11
58295;BME280;45705;55.592;37.460;2023-11-19T11:58:08;99713.50;;;-5.68;66.29
58295;BME280;45705;55.592;37.460;2023-11-19T12:00:39;99700.75;;;-5.80;68.11
58295;BME280;45705;55.592;37.460;2023-11-19T12:03:06;99699.91;;;-5.87;69.95
58295;BME280;45705;55.592;37.460;2023-11-19T12:05:34;99701.22;;;-5.33;70.24
58295;BME280;45705;55.592;37.460;2023-11-19T12:08:04;99705.78;;;-5.20;70.16
58295;BME280;45705;55.592;37.460;2023-11-19T12:10:53;99705.03;;;-5.64;73.64
58295;BME280;45705;55.592;37.460;2023-11-19T12:13:20;99704.63;;;-5.61;75.57
58295;BME280;45705;55.592;37.460;2023-11-19T12:18:31;99679.47;;;-5.22;74.36
58295;BME280;45705;55.592;37.460;2023-11-19T12:20:58;99680.28;;;-4.93;70.90
58295;BME280;45705;55.592;37.460;2023-11-19T12:23:29;99695.47;;;-5.80;70.34
58295;BME280;45705;55.592;37.460;2023-11-19T12:25:56;99674.38;;;-5.73;70.78
58295;BME280;45705;55.592;37.460;2023-11-19T12:28:22;99693.53;;;-6.14;74.33
58295;BME280;45705;55.592;37.460;2023-11-19T12:30:49;99675.75;;;-5.56;73.20
58295;BME280;45705;55.592;37.460;2023-11-19T12:33:16;99676.75;;;-5.57;73.64
58295;BME280;45705;55.592;37.460;2023-11-19T12:35:47;99684.81;;;-5.65;73.26
58295;BME280;45705;55.592;37.460;2023-11-19T12:38:24;99678.63;;;-5.94;73.60
58295;BME280;45705;55.592;37.460;2023-11-19T12:41:06;99677.16;;;-6.03;75.48
58295;BME280;45705;55.592;37.460;2023-11-19T12:43:32;99644.59;;;-5.75;73.83
58295;BME280;45705;55.592;37.460;2023-11-19T12:46:03;99667.31;;;-5.66;74.12
58295;BME280;45705;55.592;37.460;2023-11-19T12:48:28;99666.69;;;-5.68;74.30
58295;BME280;45705;55.592;37.460;2023-11-19T12:50:56;99663.28;;;-5.83;73.78
58295;BME280;45705;55.592;37.460;2023-11-19T12:53:24;99663.16;;;-5.97;74.46
58295;BME280;45705;55.592;37.460;2023-11-19T12:55:51;99658.47;;;-6.16;76.75
58295;BME280;45705;55.592;37.460;2023-11-19T13:01:00;99650.16;;;-6.13;77.66
58295;BME280;45705;55.592;37.460;2023-11-19T13:03:30;99653.50;;;-6.04;76.14
58295;BME280;45705;55.592;37.460;2023-11-19T13:06:10;99653.84;;;-6.29;75.87
58295;BME280;45705;55.592;37.460;2023-11-19T13:08:45;99640.94;;;-6.17;76.23
58295;BME280;45705;55.592;37.460;2023-11-19T13:11:12;99642.97;;;-6.19;77.65
58295;BME280;45705;55.592;37.460;2023-11-19T13:14:01;99635.66;;;-6.17;77.32